Time;durP1;ratioP1;P1;durP2;ratioP2;P2;SDS_P1;SDS_P2;PMS_P1;PMS_P2;Temp;Humidity;BMP_temperature;BMP_pressure;BME280_temperature;BME280_humidity;BME280_pressure;Samples;Min_cycle;Max_cycle;Signal;HPM_P1;HPM_P2
2023/12/07 00:00:19;;;;;;;11.32;6.78;;;;;;;-0.50;100.00;102031.28;6082738;19;20490;-74
2023/12/07 00:02:24;;;;;;;11.55;7.28;;;;;;;-0.46;100.00;102027.91;6075667;19;20058;-74
2023/12/07 00:04:30;;;;;;;10.90;5.53;;;;;;;-0.55;100.00;102026.84;6078750;19;20042;-74
2023/12/07 00:06:35;;;;;;;10.82;6.05;;;;;;;-0.59;100.00;102020.72;6078040;19;20127;-75
2023/12/07 00:08:43;;;;;;;9.65;6.35;;;;;;;-0.62;100.00;102025.81;6082464;19;20089;-74
2023/12/07 00:10:48;;;;;;;12.18;7.07;;;;;;;-0.51;100.00;102015.72;6081145;19;20014;-74
2023/12/07 00:12:53;;;;;;;10.52;6.90;;;;;;;-0.52;100.00;102021.75;6080948;19;20014;-73
2023/12/07 00:15:03;;;;;;;12.18;7.03;;;;;;;-0.52;100.00;102022.63;6077809;19;20088;-74
2023/12/07 00:17:08;;;;;;;11.32;6.78;;;;;;;-0.57;100.00;102018.19;6079658;19;20010;-74
2023/12/07 00:19:12;;;;;;;11.35;6.63;;;;;;;-0.59;100.00;102027.59;6079854;19;20015;-75
2023/12/07 00:21:17;;;;;;;10.18;5.78;;;;;;;-0.69;100.00;102022.19;6080846;19;20030;-77
2023/12/07 00:23:22;;;;;;;12.70;6.47;;;;;;;-0.71;100.00;102016.13;6082691;19;20007;-75
2023/12/07 00:25:30;;;;;;;10.27;7.47;;;;;;;-0.72;100.00;102018.66;6077437;19;20128;-75
2023/12/07 00:27:35;;;;;;;10.82;7.40;;;;;;;-0.76;100.00;102011.69;6078124;19;20011;-73
2023/12/07 00:29:42;;;;;;;12.75;8.60;;;;;;;-0.82;100.00;102019.28;6086479;19;20006;-73
2023/12/07 00:31:47;;;;;;;9.90;6.32;;;;;;;-0.84;100.00;102018.34;6086435;19;20034;-73
2023/12/07 00:33:52;;;;;;;12.32;7.25;;;;;;;-0.86;100.00;102017.47;6081718;19;20340;-74
2023/12/07 00:35:57;;;;;;;9.38;5.82;;;;;;;-0.92;100.00;102016.47;6084765;19;20617;-74
2023/12/07 00:38:03;;;;;;;13.20;7.10;;;;;;;-0.95;100.00;102008.66;6086600;19;20014;-74
2023/12/07 00:40:10;;;;;;;12.77;6.35;;;;;;;-0.94;100.00;102012.97;6086279;19;20038;-74
2023/12/07 00:42:17;;;;;;;15.88;7.25;;;;;;;-0.91;100.00;102014.75;6084624;19;20006;-75
2023/12/07 00:44:24;;;;;;;12.50;6.60;;;;;;;-0.95;100.00;102008.66;6086830;19;20349;-76
2023/12/07 00:46:29;;;;;;;10.43;6.50;;;;;;;-0.96;100.00;102009.47;6084440;19;20010;-74
2023/12/07 00:48:31;;;;;;;15.40;7.68;;;;;;;-0.99;100.00;102001.66;6084691;19;20014;-73
2023/12/07 00:50:37;;;;;;;8.35;6.25;;;;;;;-1.01;100.00;102010.19;6083126;19;20262;-76
2023/12/07 00:52:42;;;;;;;14.77;6.45;;;;;;;-1.04;100.00;102010.13;6079640;19;20018;-73
2023/12/07 00:54:48;;;;;;;11.30;7.03;;;;;;;-1.01;100.00;102000.75;6081919;19;20148;-76
2023/12/07 00:56:53;;;;;;;10.98;5.88;;;;;;;-0.96;100.00;102016.34;6083993;19;20618;-75
2023/12/07 00:59:01;;;;;;;12.25;6.85;;;;;;;-0.97;100.00;102004.28;6086653;19;20014;-75
2023/12/07 01:01:09;;;;;;;10.75;6.45;;;;;;;-1.01;100.00;102010.19;6086204;19;20010;-75
2023/12/07 01:03:16;;;;;;;10.20;6.38;;;;;;;-1.02;100.00;102013.63;6084959;19;20074;-75
2023/12/07 01:05:24;;;;;;;10.60;6.60;;;;;;;-1.05;100.00;102006.66;6090269;19;20451;-74
2023/12/07 01:07:29;;;;;;;12.90;5.95;;;;;;;-1.05;100.00;102018.66;6085595;19;20027;-75
2023/12/07 01:09:36;;;;;;;14.45;8.45;;;;;;;-1.06;100.00;102010.06;6082572;19;20009;-74
2023/12/07 01:11:42;;;;;;;12.05;8.80;;;;;;;-1.03;100.00;102012.72;6084532;19;20442;-75
2023/12/07 01:13:47;;;;;;;12.30;7.85;;;;;;;-1.09;100.00;102020.31;6085953;19;20006;-75
2023/12/07 01:15:57;;;;;;;8.73;5.82;;;;;;;-1.09;100.00;102015.16;6084504;19;20006;-75
2023/12/07 01:18:03;;;;;;;11.70;7.25;;;;;;;-1.16;100.00;102016.72;6088255;19;20039;-74
2023/12/07 01:20:12;;;;;;;10.77;6.82;;;;;;;-1.18;100.00;102015.78;6086937;19;20013;-74
2023/12/07 01:22:17;;;;;;;11.45;6.88;;;;;;;-1.19;100.00;102023.47;6081273;19;20010;-77
2023/12/07 01:24:22;;;;;;;10.43;5.97;;;;;;;-1.18;100.00;102028.69;6086576;19;20358;-76
2023/12/07 01:26:27;;;;;;;17.27;7.47;;;;;;;-1.14;100.00;102019.31;6084143;19;20007;-74
2023/12/07 01:28:35;;;;;;;14.15;7.53;;;;;;;-1.15;100.00;102025.31;6084268;19;20015;-76
2023/12/07 01:30:42;;;;;;;16.10;6.97;;;;;;;-1.21;100.00;102026.03;6083694;19;20034;-74
2023/12/07 01:32:50;;;;;;;11.93;6.47;;;;;;;-1.24;100.00;102020.75;6085640;19;20480;-75
2023/12/07 01:34:58;;;;;;;17.60;8.02;;;;;;;-1.24;100.00;102025.06;6085684;19;20006;-76
2023/12/07 01:37:00;;;;;;;9.20;5.93;;;;;;;-1.25;100.00;102018.16;6083847;19;20098;-76
2023/12/07 01:39:08;;;;;;;12.75;6.82;;;;;;;-1.25;100.00;102013.00;6078816;19;20086;-77
2023/12/07 01:41:13;;;;;;;9.35;5.35;;;;;;;-1.25;100.00;102020.75;6084043;19;20006;-77
2023/12/07 01:43:18;;;;;;;9.82;5.78;;;;;;;-1.24;100.00;102018.19;6083304;19;20046;-75
2023/12/07 01:45:23;;;;;;;12.18;7.15;;;;;;;-1.20;100.00;102020.03;6083347;19;20011;-75
2023/12/07 01:47:28;;;;;;;10.18;6.38;;;;;;;-1.19;100.00;102014.03;6084790;19;20038;-75
2023/12/07 01:49:36;;;;;;;10.90;6.40;;;;;;;-1.15;100.00;102009.84;6083538;19;20389;-75
2023/12/07 01:51:39;;;;;;;15.75;6.78;;;;;;;-1.12;100.00;102015.06;6086524;19;20332;-76
2023/12/07 01:53:49;;;;;;;11.65;6.88;;;;;;;-1.12;100.00;102015.94;6083650;19;20059;-74
2023/12/07 01:55:57;;;;;;;13.43;6.05;;;;;;;-1.10;100.00;102016.00;6087337;19;20010;-74
2023/12/07 01:58:05;;;;;;;11.65;6.45;;;;;;;-1.05;100.00;102013.50;6080065;19;20083;-74
2023/12/07 02:00:13;;;;;;;8.95;5.68;;;;;;;-1.06;100.00;102009.19;6085563;19;20066;-75
2023/12/07 02:02:23;;;;;;;11.18;6.60;;;;;;;-1.14;100.00;102015.03;6082068;19;20005;-74
2023/12/07 02:04:29;;;;;;;10.90;5.90;;;;;;;-1.14;100.00;102014.16;6085616;19;20066;-75
2023/12/07 02:06:41;;;;;;;11.63;5.68;;;;;;;-1.11;100.00;102016.81;6086596;19;20013;-75
2023/12/07 02:08:49;;;;;;;11.07;6.20;;;;;;;-1.07;100.00;102013.50;6084151;19;20029;-75
2023/12/07 02:10:54;;;;;;;11.40;6.20;;;;;;;-1.07;100.00;102017.78;6085687;19;20014;-77
2023/12/07 02:13:01;;;;;;;10.82;6.85;;;;;;;-1.02;100.00;102026.53;6084941;19;20014;-75
2023/12/07 02:15:06;;;;;;;12.93;5.82;;;;;;;-1.06;100.00;102016.94;6082570;19;20418;-76
2023/12/07 02:17:19;;;;;;;10.88;5.90;;;;;;;-1.01;100.00;102017.94;6082603;19;20002;-76
2023/12/07 02:19:50;;;;;;;10.65;6.40;;;;;;;-1.02;100.00;102009.31;6086229;19;20010;-76
2023/12/07 02:22:05;;;;;;;12.63;6.90;;;;;;;-1.05;100.00;102010.94;6084364;19;20014;-76
2023/12/07 02:24:12;;;;;;;11.93;6.45;;;;;;;-1.04;100.00;102015.28;6088011;19;20021;-76
2023/12/07 02:26:23;;;;;;;11.32;7.03;;;;;;;-1.05;100.00;102017.00;6085211;19;20053;-74
2023/12/07 02:28:35;;;;;;;11.60;6.57;;;;;;;-1.06;100.00;102010.06;6086005;19;20014;-75
2023/12/07 02:30:40;;;;;;;9.80;5.93;;;;;;;-0.94;100.00;102012.97;5986136;19;2004679;-77
2023/12/07 02:32:48;;;;;;;10.38;5.65;;;;;;;-0.84;100.00;102015.78;6088174;19;20027;-74
2023/12/07 02:34:54;;;;;;;10.75;6.32;;;;;;;-0.62;100.00;102023.22;6088798;19;20028;-75
2023/12/07 02:37:02;;;;;;;11.57;7.00;;;;;;;-0.60;100.00;102016.41;6090883;19;20011;-77
2023/12/07 02:39:13;;;;;;;11.68;5.70;;;;;;;-0.62;100.00;102018.06;6084901;19;20017;-74
2023/12/07 02:41:19;;;;;;;13.27;7.25;;;;;;;-0.65;100.00;102017.13;6085085;19;20014;-74
2023/12/07 02:43:25;;;;;;;10.95;6.28;;;;;;;-0.67;100.00;102020.53;6090804;19;20006;-75
2023/12/07 02:45:36;;;;;;;11.25;6.72;;;;;;;-0.54;100.00;102021.69;6093045;19;20014;-74
2023/12/07 02:47:38;;;;;;;12.52;6.72;;;;;;;-0.55;100.00;102019.97;6092711;19;20010;-76
2023/12/07 02:49:44;;;;;;;14.68;7.70;;;;;;;-0.55;100.00;102026.84;6087897;19;20015;-75
2023/12/07 02:51:49;;;;;;;15.55;7.10;;;;;;;-0.65;100.00;102027.44;6090989;19;20070;-76
2023/12/07 02:53:54;;;;;;;14.35;7.05;;;;;;;-0.69;100.00;102021.31;6086625;19;20463;-76
2023/12/07 02:55:59;;;;;;;16.02;7.50;;;;;;;-0.74;100.00;102021.22;6088939;19;20451;-75
2023/12/07 02:58:06;;;;;;;11.40;6.05;;;;;;;-0.78;100.00;102024.56;6088054;19;20078;-76
2023/12/07 03:00:14;;;;;;;10.85;5.72;;;;;;;-0.86;100.00;102030.38;6082339;19;20617;-75
2023/12/07 03:02:22;;;;;;;10.52;6.25;;;;;;;-0.95;100.00;102028.41;6083023;19;20025;-75
2023/12/07 03:04:28;;;;;;;11.30;6.15;;;;;;;-0.98;100.00;102026.63;6085271;19;20020;-76
2023/12/07 03:06:33;;;;;;;13.02;6.90;;;;;;;-1.03;100.00;102025.63;6083504;19;20006;-77
2023/12/07 03:08:38;;;;;;;11.98;6.88;;;;;;;-1.09;100.00;102025.47;6082621;19;20439;-76
2023/12/07 03:10:44;;;;;;;10.27;6.45;;;;;;;-1.11;100.00;102032.28;6083723;19;20014;-75
2023/12/07 03:12:49;;;;;;;9.35;6.05;;;;;;;-1.15;100.00;102027.91;6081308;19;20565;-76
2023/12/07 03:14:56;;;;;;;11.02;6.32;;;;;;;-1.18;100.00;102036.44;6084327;19;20013;-76
2023/12/07 03:17:01;;;;;;;10.23;5.13;;;;;;;-1.19;100.00;102029.50;6083063;19;20038;-76
2023/12/07 03:19:11;;;;;;;11.80;7.07;;;;;;;-1.23;100.00;102032.84;6082450;19;20084;-75
2023/12/07 03:21:21;;;;;;;9.68;6.18;;;;;;;-1.20;100.00;102029.47;6083375;19;20431;-76
2023/12/07 03:23:26;;;;;;;10.23;6.30;;;;;;;-1.24;100.00;102014.75;6082830;19;20035;-76
2023/12/07 03:25:31;;;;;;;9.50;5.97;;;;;;;-1.09;100.00;102015.16;6082669;19;20018;-76
2023/12/07 03:27:37;;;;;;;12.40;6.90;;;;;;;-1.06;100.00;102025.53;6081494;19;20002;-76
2023/12/07 03:29:49;;;;;;;11.50;6.35;;;;;;;-0.93;100.00;102032.78;6081095;19;20009;-76
2023/12/07 03:31:54;;;;;;;15.73;8.05;;;;;;;-0.87;100.00;102026.88;6082709;19;20479;-75
2023/12/07 03:34:00;;;;;;;12.80;7.57;;;;;;;-0.78;100.00;102031.44;6082860;19;20033;-77
2023/12/07 03:36:14;;;;;;;12.10;7.75;;;;;;;-0.50;100.00;102023.53;6081906;19;20018;-75
2023/12/07 03:38:21;;;;;;;14.38;7.68;;;;;;;-0.59;100.00;102033.63;6081447;19;20014;-76
2023/12/07 03:40:26;;;;;;;20.77;9.82;;;;;;;-0.45;100.00;102036.53;6081884;19;20007;-75
2023/12/07 03:42:32;;;;;;;14.68;9.93;;;;;;;-0.24;100.00;102020.66;6082867;19;20011;-77
2023/12/07 03:45:00;;;;;;;30.90;11.05;;;;;;;-0.20;100.00;102022.50;6079747;19;20053;-76
2023/12/07 03:47:06;;;;;;;14.13;7.70;;;;;;;-0.14;100.00;102020.03;6072965;19;20038;-76
2023/12/07 03:49:13;;;;;;;16.73;9.35;;;;;;;-0.18;100.00;102023.41;6082717;19;20043;-76
2023/12/07 03:51:22;;;;;;;17.02;10.20;;;;;;;-0.28;100.00;102021.44;6081691;19;20045;-74
2023/12/07 03:53:28;;;;;;;16.10;9.50;;;;;;;-0.27;100.00;102026.63;6075969;19;20518;-74
2023/12/07 03:55:33;;;;;;;18.13;9.75;;;;;;;-0.38;100.00;102017.78;6082053;19;20431;-77
2023/12/07 03:57:39;;;;;;;15.75;9.43;;;;;;;-0.44;100.00;102025.38;6082881;19;20503;-75
2023/12/07 03:59:46;;;;;;;12.13;7.65;;;;;;;-0.50;100.00;102020.94;6080448;19;20010;-75
2023/12/07 04:01:51;;;;;;;21.48;9.57;;;;;;;-0.48;100.00;102016.66;6085793;19;20028;-75
2023/12/07 04:04:00;;;;;;;15.38;9.15;;;;;;;-0.49;100.00;102022.69;6083441;19;20587;-75
2023/12/07 04:06:09;;;;;;;18.23;9.68;;;;;;;-0.53;100.00;102022.56;6084313;19;20014;-76
2023/12/07 04:08:18;;;;;;;21.05;9.75;;;;;;;-0.47;100.00;102015.84;6085830;19;20002;-76
2023/12/07 04:10:24;;;;;;;15.27;8.13;;;;;;;-0.43;100.00;102018.50;6085711;19;20003;-75
2023/12/07 04:12:32;;;;;;;16.45;9.00;;;;;;;-0.34;100.00;102013.53;6087078;19;20010;-76
2023/12/07 04:14:37;;;;;;;16.83;10.20;;;;;;;-0.38;100.00;102015.19;6085867;19;20470;-76
2023/12/07 04:16:39;;;;;;;19.63;10.77;;;;;;;-0.37;100.00;102008.31;6086771;19;20035;-75
2023/12/07 04:18:45;;;;;;;19.27;10.55;;;;;;;-0.26;100.00;102009.44;6088683;19;20014;-75
2023/12/07 04:20:50;;;;;;;14.82;9.98;;;;;;;-0.29;100.00;102012.84;6087559;19;20106;-75
2023/12/07 04:22:58;;;;;;;20.73;11.65;;;;;;;-0.25;100.00;102009.47;6081343;19;20006;-75
2023/12/07 04:25:07;;;;;;;22.13;12.77;;;;;;;-0.18;100.00;102009.63;6087257;19;20014;-75
2023/12/07 04:27:13;;;;;;;20.90;12.45;;;;;;;-0.22;100.00;102009.53;6088315;19;20010;-74
2023/12/07 04:29:18;;;;;;;23.63;13.40;;;;;;;-0.28;100.00;102008.53;6084809;19;20014;-75
2023/12/07 04:31:23;;;;;;;15.75;11.60;;;;;;;-0.27;100.00;102011.13;6083684;19;20013;-74
2023/12/07 04:33:29;;;;;;;23.83;12.52;;;;;;;-0.26;100.00;102005.16;6086342;19;20016;-75
2023/12/07 04:35:34;;;;;;;25.85;13.63;;;;;;;-0.27;100.00;102000.81;6087747;19;20073;-74
2023/12/07 04:37:40;;;;;;;24.67;11.80;;;;;;;-0.32;100.00;102002.41;6090099;19;20014;-74
2023/12/07 04:39:45;;;;;;;23.05;14.07;;;;;;;-0.34;100.00;102001.53;6087743;19;20050;-74
2023/12/07 04:41:56;;;;;;;27.92;13.90;;;;;;;-0.34;100.00;101998.03;6086304;19;20097;-76
2023/12/07 04:44:01;;;;;;;19.10;11.40;;;;;;;-0.39;100.00;102005.72;6085977;19;20751;-74
2023/12/07 04:46:11;;;;;;;29.17;14.30;;;;;;;-0.38;100.00;102001.41;6087571;19;20046;-77
2023/12/07 04:48:22;;;;;;;23.27;12.38;;;;;;;-0.43;100.00;102003.00;6082304;19;20652;-74
2023/12/07 04:50:28;;;;;;;26.77;12.38;;;;;;;-0.43;100.00;101998.72;6086696;19;20361;-76
2023/12/07 04:52:41;;;;;;;25.38;14.15;;;;;;;-0.46;100.00;102004.69;6084927;19;20408;-75
2023/12/07 04:54:48;;;;;;;24.55;13.10;;;;;;;-0.50;100.00;102012.31;6087807;19;20103;-76
2023/12/07 04:56:58;;;;;;;23.13;13.27;;;;;;;-0.49;100.00;102014.94;6087375;19;20055;-76
2023/12/07 04:59:06;;;;;;;28.20;13.18;;;;;;;-0.48;100.00;102021.84;6085821;19;20255;-76
2023/12/07 05:01:15;;;;;;;23.48;13.27;;;;;;;-0.49;100.00;102017.53;6083784;19;20007;-76
2023/12/07 05:03:20;;;;;;;29.88;14.75;;;;;;;-0.53;100.00;102020.84;6083137;19;20474;-77
2023/12/07 05:05:25;;;;;;;31.25;12.60;;;;;;;-0.56;100.00;102023.38;6084039;19;20093;-75
2023/12/07 05:07:28;;;;;;;27.65;13.52;;;;;;;-0.57;100.00;102015.59;6087207;19;20489;-74
2023/12/07 05:09:33;;;;;;;;;;;;;;;-0.53;100.00;102020.84;6085847;19;20361;-75
2023/12/07 05:11:38;;;;;;;19.33;11.65;;;;;;;-0.54;100.00;102018.25;6085417;19;20025;-77
2023/12/07 05:13:50;;;;;;;28.48;12.07;;;;;;;-0.50;100.00;102020.94;6086354;19;20023;-75
2023/12/07 05:15:55;;;;;;;28.58;11.20;;;;;;;-0.50;100.00;102012.31;6086907;19;20086;-75
2023/12/07 05:18:00;;;;;;;26.75;11.52;;;;;;;-0.49;100.00;102009.78;6085708;19;20373;-75
2023/12/07 05:20:07;;;;;;;21.60;12.45;;;;;;;-0.52;100.00;102012.28;6085671;19;20015;-76
2023/12/07 05:22:13;;;;;;;19.20;13.35;;;;;;;-0.53;100.00;102010.53;6085639;19;20014;-74
2023/12/07 05:24:21;;;;;;;28.50;10.50;;;;;;;-0.51;100.00;102008.00;6083130;19;20081;-75
2023/12/07 05:26:32;;;;;;;29.10;13.20;;;;;;;-0.49;100.00;101996.88;6088787;19;20502;-75
2023/12/07 05:28:39;;;;;;;30.50;14.13;;;;;;;-0.42;100.00;101991.84;6087941;19;20123;-77
2023/12/07 05:30:47;;;;;;;31.92;15.65;;;;;;;-0.46;100.00;101991.75;6090485;19;20343;-75
2023/12/07 05:32:53;;;;;;;25.50;12.77;;;;;;;-0.47;100.00;101997.78;6090940;19;20046;-76
2023/12/07 05:35:00;;;;;;;32.70;14.32;;;;;;;-0.34;100.00;101992.88;6091487;19;20155;-75
2023/12/07 05:37:08;;;;;;;24.83;14.07;;;;;;;-0.38;100.00;101994.53;6093615;19;20031;-75
2023/12/07 05:39:17;;;;;;;33.47;15.63;;;;;;;-0.43;100.00;102000.44;6091082;19;20014;-74
2023/12/07 05:41:22;;;;;;;31.98;14.23;;;;;;;-0.47;100.00;101992.63;6093690;19;20006;-76
2023/12/07 05:43:29;;;;;;;23.48;12.48;;;;;;;-0.50;100.00;101996.81;6094477;19;20101;-74
2023/12/07 05:45:36;;;;;;;27.17;11.48;;;;;;;-0.53;100.00;101984.72;6089748;19;20018;-74
2023/12/07 05:47:45;;;;;;;23.60;13.55;;;;;;;-0.47;100.00;101984.00;6088956;19;20006;-73
2023/12/07 05:49:57;;;;;;;22.85;12.50;;;;;;;-0.57;100.00;101982.91;6089168;19;20074;-74
2023/12/07 05:52:04;;;;;;;;;;;;;;;-0.59;100.00;101986.28;6084111;19;20478;-73
2023/12/07 05:54:06;;;;;;;19.08;9.30;;;;;;;-0.51;100.00;101989.91;6082908;19;19941;-74
2023/12/07 05:56:12;;;;;;;26.67;11.23;;;;;;;-0.54;100.00;101990.72;6087904;19;20423;-76
2023/12/07 05:58:17;;;;;;;26.70;10.10;;;;;;;-0.58;100.00;101988.91;6086346;19;20011;-79
2023/12/07 06:00:22;;;;;;;24.75;10.43;;;;;;;-0.58;100.00;101982.84;6086058;19;20499;-76
2023/12/07 06:02:28;;;;;;;24.60;12.35;;;;;;;-0.57;100.00;101982.91;6083905;19;20042;-73
2023/12/07 06:04:33;;;;;;;28.95;12.05;;;;;;;-0.58;100.00;101981.16;6084455;19;20014;-77
2023/12/07 06:06:40;;;;;;;20.70;10.63;;;;;;;-0.55;100.00;101991.56;6086529;19;20015;-74
2023/12/07 06:08:45;;;;;;;20.95;10.98;;;;;;;-0.48;100.00;101988.28;6077476;19;20033;-75
2023/12/07 06:10:50;;;;;;;31.65;11.88;;;;;;;-0.55;100.00;101983.81;6083048;19;20278;-75
2023/12/07 06:12:55;;;;;;;28.60;11.32;;;;;;;-0.57;100.00;101984.63;6084503;19;20448;-79
2023/12/07 06:15:02;;;;;;;38.40;9.38;;;;;;;-0.61;100.00;101988.81;6085296;19;20002;-75
2023/12/07 06:17:10;;;;;;;24.40;9.63;;;;;;;-0.59;100.00;101996.63;6085270;19;20002;-74
2023/12/07 06:19:17;;;;;;;22.88;8.40;;;;;;;-0.58;100.00;101998.34;6083213;19;20007;-75
2023/12/07 06:21:29;;;;;;;29.83;9.73;;;;;;;-0.58;100.00;102001.81;6084151;19;20032;-75
2023/12/07 06:23:35;;;;;;;24.33;10.95;;;;;;;-0.62;100.00;101997.41;6086535;19;20416;-75
2023/12/07 06:25:40;;;;;;;29.40;11.32;;;;;;;-0.61;100.00;101988.81;6085116;19;20264;-74
2023/12/07 06:27:45;;;;;;;19.95;8.60;;;;;;;-0.54;100.00;102000.19;6079365;19;20003;-74
2023/12/07 06:29:51;;;;;;;25.17;12.02;;;;;;;-0.56;100.00;102001.84;6082361;19;20414;-74
2023/12/07 06:31:56;;;;;;;23.42;8.88;;;;;;;-0.48;100.00;101990.84;6083601;19;20011;-76
2023/12/07 06:34:01;;;;;;;22.83;10.40;;;;;;;-0.48;100.00;101989.97;6084610;19;20345;-76
2023/12/07 06:36:10;;;;;;;26.27;11.68;;;;;;;-0.42;100.00;101986.66;6085755;19;20007;-76
2023/12/07 06:38:20;;;;;;;22.70;10.18;;;;;;;-0.49;100.00;101998.59;6082859;19;20007;-76
2023/12/07 06:40:27;;;;;;;33.90;11.75;;;;;;;-0.49;100.00;101993.41;6084850;19;20006;-75
2023/12/07 06:42:35;;;;;;;20.17;11.40;;;;;;;-0.48;100.00;101979.66;6085263;19;20014;-74
2023/12/07 06:44:43;;;;;;;31.00;11.82;;;;;;;-0.48;100.00;101989.97;6083721;19;20901;-75
2023/12/07 06:46:45;;;;;;;27.17;11.10;;;;;;;-0.50;100.00;101994.22;6084772;19;20039;-77
2023/12/07 06:48:52;;;;;;;;;;;;;;;-0.47;100.00;101996.91;6085326;19;20100;-74
2023/12/07 06:50:57;;;;;;;25.50;9.68;;;;;;;-0.52;100.00;101991.63;6083641;19;19914;-77
2023/12/07 06:53:02;;;;;;;29.73;11.27;;;;;;;-0.50;100.00;101981.31;6076616;19;20729;-74
2023/12/07 06:55:10;;;;;;;25.95;10.63;;;;;;;-0.50;100.00;101981.31;6083471;19;20475;-78
2023/12/07 06:57:15;;;;;;;20.50;8.23;;;;;;;-0.41;100.00;101986.72;6084097;19;20030;-72
2023/12/07 06:59:20;;;;;;;25.30;13.43;;;;;;;-0.36;100.00;101981.66;6082678;19;20025;-73
2023/12/07 07:01:28;;;;;;;29.98;10.23;;;;;;;-0.34;100.00;101985.13;6082252;19;20739;-74
2023/12/07 07:03:37;;;;;;;28.17;9.50;;;;;;;-0.28;100.00;101977.53;6033709;19;20042;-73
2023/12/07 07:05:43;;;;;;;31.67;11.48;;;;;;;-0.27;100.00;101995.63;6085181;19;20003;-77
2023/12/07 07:07:51;;;;;;;22.48;9.32;;;;;;;-0.26;100.00;101987.06;6084394;19;20102;-74
2023/12/07 07:09:57;;;;;;;19.85;10.07;;;;;;;-0.18;100.00;101982.06;6084286;19;20034;-73
2023/12/07 07:12:05;;;;;;;22.70;8.98;;;;;;;-0.19;100.00;101982.03;6081103;19;20019;-73
2023/12/07 07:14:12;;;;;;;30.10;9.52;;;;;;;-0.20;100.00;101976.00;6081595;19;20023;-73
2023/12/07 07:16:17;;;;;;;24.98;9.20;;;;;;;-0.23;100.00;101986.25;6082520;19;20027;-77
2023/12/07 07:18:25;;;;;;;23.70;9.13;;;;;;;-0.11;100.00;101973.59;6081123;19;20066;-72
2023/12/07 07:20:30;;;;;;;15.60;6.82;;;;;;;-0.05;100.00;101981.50;6077957;19;20118;-73
2023/12/07 07:22:35;;;;;;;22.00;8.95;;;;;;;-0.09;100.00;101977.09;6084049;19;20109;-76
2023/12/07 07:24:40;;;;;;;28.45;10.90;;;;;;;-0.06;100.00;101974.56;6082698;19;20019;-74
2023/12/07 07:26:46;;;;;;;19.15;8.75;;;;;;;0.01;100.00;101977.31;6083732;19;20010;-73
2023/12/07 07:28:55;;;;;;;26.30;9.90;;;;;;;-0.07;100.00;101988.34;6086251;19;20474;-75
2023/12/07 07:31:00;;;;;;;25.65;7.72;;;;;;;0.00;100.00;101986.78;6082734;19;20024;-77
2023/12/07 07:33:05;;;;;;;21.58;9.27;;;;;;;-0.01;100.00;101979.84;6078726;19;20073;-72
2023/12/07 07:35:11;;;;;;;30.02;9.43;;;;;;;0.03;100.00;101984.25;6082306;19;20026;-73
2023/12/07 07:37:19;;;;;;;25.55;9.15;;;;;;;0.03;100.00;101991.09;6081603;19;20019;-76
2023/12/07 07:39:25;;;;;;;25.88;10.80;;;;;;;-0.07;100.00;101985.75;6078766;19;20039;-73
2023/12/07 07:41:30;;;;;;;22.55;9.82;;;;;;;-0.08;100.00;101986.59;6080800;19;20090;-74
2023/12/07 07:43:35;;;;;;;32.25;10.63;;;;;;;-0.08;100.00;101984.03;6081188;19;20364;-76
2023/12/07 07:45:48;;;;;;;27.38;9.45;;;;;;;-0.06;100.00;101979.72;6083137;19;20066;-74
2023/12/07 07:47:51;;;;;;;35.03;12.55;;;;;;;0.02;100.00;101981.63;6082717;19;20014;-78
2023/12/07 07:49:56;;;;;;;25.27;9.73;;;;;;;-0.02;100.00;101989.31;6078616;19;20412;-73
2023/12/07 07:52:01;;;;;;;30.63;8.65;;;;;;;0.03;100.00;101988.53;6075866;19;20003;-76
2023/12/07 07:54:06;;;;;;;18.98;9.27;;;;;;;-0.01;100.00;101995.34;6079369;19;20079;-78
2023/12/07 07:56:13;;;;;;;17.40;8.40;;;;;;;-0.03;100.00;101987.56;6072058;19;20007;-78
2023/12/07 07:58:19;;;;;;;22.58;9.68;;;;;;;0.05;100.00;101992.00;6079614;19;20757;-73
2023/12/07 08:00:28;;;;;;;22.83;8.40;;;;;;;0.06;100.00;101988.63;6074320;19;20620;-73
2023/12/07 08:02:36;;;;;;;30.30;10.98;;;;;;;0.05;100.00;101982.53;6077456;19;20493;-77
2023/12/07 08:04:43;;;;;;;32.47;11.90;;;;;;;0.03;100.00;101994.59;6081720;19;20325;-75
2023/12/07 08:06:48;;;;;;;22.00;8.98;;;;;;;0.12;100.00;101993.91;6079114;19;20034;-80
2023/12/07 08:08:54;;;;;;;33.30;9.52;;;;;;;0.13;100.00;102006.88;6084578;19;20023;-73
2023/12/07 08:11:00;;;;;;;25.00;11.88;;;;;;;0.09;100.00;102005.03;6085350;19;20039;-74
2023/12/07 08:13:07;;;;;;;28.05;9.05;;;;;;;0.08;100.00;101998.13;6081420;19;20027;-74
2023/12/07 08:15:13;;;;;;;19.23;8.60;;;;;;;0.21;100.00;101996.66;6080431;19;20010;-74
2023/12/07 08:17:19;;;;;;;23.70;10.15;;;;;;;0.23;100.00;101987.22;6078067;19;20014;-74
2023/12/07 08:19:27;;;;;;;30.02;11.43;;;;;;;0.29;100.00;101989.97;6077405;19;20017;-79
2023/12/07 08:21:32;;;;;;;26.52;10.20;;;;;;;0.29;100.00;101991.66;6080914;19;20038;-74
2023/12/07 08:23:35;;;;;;;31.63;11.70;;;;;;;0.25;100.00;101993.31;6081265;19;20035;-74
2023/12/07 08:25:42;;;;;;;;;;;;;;;0.20;100.00;101988.03;6078735;19;20010;-73
2023/12/07 08:27:48;;;;;;;26.30;10.10;;;;;;;0.29;100.00;101989.97;6081865;19;19934;-75
2023/12/07 08:29:53;;;;;;;48.85;11.95;;;;;;;0.26;100.00;101986.41;6081164;19;20027;-75
2023/12/07 08:31:58;;;;;;;35.83;12.18;;;;;;;0.25;100.00;101977.81;6078512;19;20002;-74
2023/12/07 08:34:03;;;;;;;44.92;12.90;;;;;;;0.26;100.00;101983.84;6080858;19;20011;-74
2023/12/07 08:36:11;;;;;;;24.63;11.50;;;;;;;0.35;100.00;101982.31;6082618;19;20101;-75
2023/12/07 08:38:16;;;;;;;29.63;11.43;;;;;;;0.34;100.00;101984.84;6083162;19;20467;-74
2023/12/07 08:40:21;;;;;;;25.15;12.18;;;;;;;0.34;100.00;101979.69;6081246;19;20093;-76
2023/12/07 08:42:28;;;;;;;38.78;12.90;;;;;;;0.29;100.00;101973.56;6083044;19;20482;-76
2023/12/07 08:44:31;;;;;;;30.45;10.07;;;;;;;0.37;100.00;101965.13;6082192;19;20122;-75
2023/12/07 08:46:36;;;;;;;30.20;10.60;;;;;;;0.40;100.00;101972.06;6080580;19;20011;-74
2023/12/07 08:48:43;;;;;;;26.20;10.30;;;;;;;0.38;100.00;101963.41;6072557;19;20006;-76
2023/12/07 08:50:45;;;;;;;35.20;12.38;;;;;;;0.42;100.00;101970.38;6084618;19;20235;-75
2023/12/07 08:52:54;;;;;;;39.30;11.52;;;;;;;0.42;100.00;101962.59;6085169;19;20011;-74
2023/12/07 08:55:08;;;;;;;38.50;12.55;;;;;;;0.47;100.00;101960.13;6086182;19;20006;-75
2023/12/07 08:57:20;;;;;;;34.03;10.07;;;;;;;0.46;100.00;101971.31;6084617;19;20007;-75
2023/12/07 08:59:26;;;;;;;40.30;13.20;;;;;;;0.47;100.00;101966.16;6082815;19;20365;-74
2023/12/07 09:01:33;;;;;;;36.38;15.43;;;;;;;0.45;100.00;101973.03;6084527;19;20014;-75
2023/12/07 09:03:38;;;;;;;27.00;13.10;;;;;;;0.53;100.00;101970.59;6087730;19;20013;-74
2023/12/07 09:05:43;;;;;;;36.28;12.00;;;;;;;0.55;100.00;101974.94;6086236;19;20363;-75
2023/12/07 09:07:48;;;;;;;32.72;11.82;;;;;;;0.58;100.00;101974.13;6085833;19;20013;-75
2023/12/07 09:09:56;;;;;;;33.22;11.88;;;;;;;0.49;100.00;101973.94;6083655;19;20014;-74
2023/12/07 09:12:01;;;;;;;42.08;13.30;;;;;;;0.52;100.00;101974.00;6084512;19;20034;-74
2023/12/07 09:14:03;;;;;;;39.20;12.95;;;;;;;0.57;100.00;101970.66;6083847;19;20010;-74
2023/12/07 09:16:09;;;;;;;45.28;9.88;;;;;;;0.60;100.00;101975.88;6084430;19;20011;-75
2023/12/07 09:18:17;;;;;;;45.75;13.48;;;;;;;0.64;100.00;101979.44;6085170;19;20010;-74
2023/12/07 09:20:23;;;;;;;48.95;12.55;;;;;;;0.74;100.00;101971.00;6083007;19;20721;-74
2023/12/07 09:22:25;;;;;;;44.17;13.75;;;;;;;0.69;100.00;101972.63;6083020;19;20003;-74
2023/12/07 09:24:40;;;;;;;;;;;;;;;0.78;100.00;101952.06;6085349;19;20003;-74
2023/12/07 09:26:48;;;;;;;36.53;15.65;;;;;;;0.80;100.00;101947.81;6081384;19;19915;-75
2023/12/07 09:28:53;;;;;;;42.17;13.13;;;;;;;0.84;100.00;101947.03;6081294;19;20081;-75
2023/12/07 09:30:58;;;;;;;43.08;14.88;;;;;;;0.92;100.00;101946.25;6083116;19;20602;-73
2023/12/07 09:33:05;;;;;;;44.60;17.35;;;;;;;0.97;100.00;101942.91;6082972;19;20418;-75
2023/12/07 09:35:14;;;;;;;43.47;14.18;;;;;;;0.99;100.00;101946.41;6085796;19;20011;-75